Time;durP1;ratioP1;P1;durP2;ratioP2;P2;SDS_P1;SDS_P2;PMS_P1;PMS_P2;Temp;Humidity;BMP_temperature;BMP_pressure;BME280_temperature;BME280_humidity;BME280_pressure;Samples;Min_cycle;Max_cycle;Signal;HPM_P1;HPM_P2
2022/03/18 00:02:25;;;;;;;52.88;36.58;;;7.70;90.40;;;;;;5095064;28;20062;-76
2022/03/18 00:04:52;;;;;;;49.45;34.35;;;7.60;89.30;;;;;;5094489;28;20119;-77
2022/03/18 00:07:22;;;;;;;47.38;33.17;;;7.70;89.30;;;;;;5094957;28;20020;-77
2022/03/18 00:09:48;;;;;;;51.80;34.72;;;7.80;89.20;;;;;;5079025;28;20113;-77
2022/03/18 00:12:15;;;;;;;48.03;33.58;;;7.70;88.70;;;;;;5094651;28;20132;-76
2022/03/18 00:14:41;;;;;;;48.85;34.47;;;7.70;88.80;;;;;;5095861;28;20020;-76
2022/03/18 00:17:08;;;;;;;47.47;33.75;;;7.70;88.70;;;;;;5107722;28;20055;-77
2022/03/18 00:19:35;;;;;;;46.60;32.78;;;7.80;88.60;;;;;;5097831;28;20024;-77
2022/03/18 00:22:01;;;;;;;49.47;34.38;;;7.70;88.50;;;;;;5094574;28;20119;-77
2022/03/18 00:24:32;;;;;;;53.08;35.83;;;7.80;88.50;;;;;;5094868;28;20121;-76
2022/03/18 00:26:58;;;;;;;55.08;37.20;;;7.70;88.50;;;;;;5094359;28;20024;-76
2022/03/18 00:29:25;;;;;;;51.33;35.95;;;7.70;88.50;;;;;;5096133;28;20031;-77
2022/03/18 00:31:51;;;;;;;50.15;34.65;;;7.70;88.80;;;;;;5094893;28;20103;-76
2022/03/18 00:34:16;;;;;;;52.97;36.10;;;7.70;88.90;;;;;;5095706;28;20487;-76
2022/03/18 00:36:42;;;;;;;53.97;37.33;;;7.70;88.80;;;;;;5094524;28;20028;-77
2022/03/18 00:39:07;;;;;;;51.78;36.00;;;7.70;88.70;;;;;;5094601;28;20024;-77
2022/03/18 00:41:33;;;;;;;57.10;39.38;;;7.70;88.70;;;;;;5093815;28;20020;-76
2022/03/18 00:43:59;;;;;;;52.47;35.80;;;7.70;88.50;;;;;;5093878;28;20035;-76
2022/03/18 00:46:25;;;;;;;58.58;39.47;;;7.70;88.70;;;;;;5094184;28;20024;-77
2022/03/18 00:54:20;;;;;;;56.75;38.78;;;7.70;88.90;;;;;;5095608;28;20058;-75
2022/03/18 00:56:45;;;;;;;60.00;40.70;;;7.70;88.80;;;;;;5093879;28;20051;-76
2022/03/18 00:59:11;;;;;;;60.92;40.13;;;7.60;88.80;;;;;;5093857;28;20529;-75
2022/03/18 01:01:37;;;;;;;61.53;40.95;;;7.60;88.80;;;;;;5093743;28;20024;-75
2022/03/18 01:04:04;;;;;;;57.67;39.72;;;7.60;89.00;;;;;;5093988;28;20050;-75
2022/03/18 01:06:33;;;;;;;62.13;42.10;;;7.70;89.30;;;;;;5076843;28;20064;-75
2022/03/18 01:08:58;;;;;;;61.58;41.30;;;7.60;89.00;;;;;;5094038;28;20028;-76
2022/03/18 01:11:24;;;;;;;57.78;38.60;;;7.70;89.00;;;;;;5093946;28;20028;-75
2022/03/18 01:13:50;;;;;;;58.55;40.33;;;7.70;89.00;;;;;;5095209;28;20459;-75
2022/03/18 01:16:16;;;;;;;61.50;41.55;;;7.70;88.50;;;;;;5093678;28;20055;-75
2022/03/18 01:18:41;;;;;;;56.67;38.80;;;7.60;88.60;;;;;;5093274;28;20358;-75
2022/03/18 01:21:08;;;;;;;66.90;43.28;;;7.60;88.90;;;;;;5093797;28;20122;-76
2022/03/18 01:23:34;;;;;;;62.05;41.78;;;7.50;89.10;;;;;;5093793;28;20493;-76
2022/03/18 01:25:59;;;;;;;59.45;41.38;;;7.50;89.60;;;;;;5093852;28;20028;-75
2022/03/18 01:28:27;;;;;;;58.60;38.90;;;7.50;89.80;;;;;;5093155;28;20030;-74
2022/03/18 01:30:53;;;;;;;57.30;38.00;;;7.50;89.70;;;;;;5093313;28;20028;-75
2022/03/18 01:33:19;;;;;;;61.03;38.08;;;7.50;89.60;;;;;;5093636;28;20016;-75
2022/03/18 01:35:44;;;;;;;56.67;38.20;;;7.50;89.50;;;;;;5093365;28;20032;-75
2022/03/18 01:38:10;;;;;;;61.10;39.85;;;7.50;89.50;;;;;;5092655;28;20020;-75
2022/03/18 01:40:35;;;;;;;53.65;36.72;;;7.50;89.30;;;;;;5093127;28;20081;-75
2022/03/18 01:43:01;;;;;;;55.38;36.75;;;7.50;89.30;;;;;;5093427;28;20115;-75
2022/03/18 01:45:27;;;;;;;53.83;37.40;;;7.50;89.20;;;;;;5092739;28;20031;-75
2022/03/18 01:47:53;;;;;;;52.65;35.80;;;7.50;89.10;;;;;;5093298;28;20016;-77
2022/03/18 01:50:20;;;;;;;51.53;35.60;;;7.50;89.10;;;;;;5093176;28;20028;-79
2022/03/18 01:52:46;;;;;;;50.50;34.45;;;7.60;89.00;;;;;;5093091;28;20020;-78
2022/03/18 01:55:13;;;;;;;48.92;34.35;;;7.60;88.80;;;;;;5092522;28;20422;-78
2022/03/18 01:57:39;;;;;;;51.33;34.67;;;7.60;88.50;;;;;;5092821;28;20028;-79
2022/03/18 02:00:05;;;;;;;52.03;34.85;;;7.60;88.20;;;;;;5092788;28;20118;-78
2022/03/18 02:02:31;;;;;;;50.20;32.75;;;7.60;88.10;;;;;;5092634;28;20027;-78
2022/03/18 02:04:58;;;;;;;49.67;34.50;;;7.70;88.10;;;;;;5092921;28;20032;-77
2022/03/18 02:07:23;;;;;;;54.83;36.55;;;7.60;87.80;;;;;;5092881;28;20057;-78
2022/03/18 02:09:49;;;;;;;52.53;35.10;;;7.60;87.80;;;;;;5093888;28;20032;-77
2022/03/18 02:12:15;;;;;;;55.28;36.22;;;7.50;88.00;;;;;;5092344;28;20456;-78
2022/03/18 02:14:43;;;;;;;51.10;34.53;;;7.50;88.30;;;;;;5092754;28;20032;-79
2022/03/18 02:17:11;;;;;;;54.33;35.13;;;7.50;88.50;;;;;;5092446;28;20052;-79
2022/03/18 02:19:37;;;;;;;56.88;36.88;;;7.50;88.40;;;;;;5092808;28;20028;-78
2022/03/18 02:22:11;;;;;;;55.95;36.88;;;7.70;88.60;;;;;;5092471;28;20024;-79
2022/03/18 02:24:41;;;;;;;57.63;38.78;;;7.60;88.30;;;;;;5092610;28;20125;-79
2022/03/18 02:27:07;;;;;;;56.90;37.67;;;7.70;88.20;;;;;;5092605;28;20108;-79
2022/03/18 02:29:32;;;;;;;55.58;36.40;;;7.70;88.30;;;;;;5092547;28;20024;-78
2022/03/18 02:31:59;;;;;;;51.25;34.35;;;7.70;88.30;;;;;;5092304;28;20470;-78
2022/03/18 02:34:29;;;;;;;56.45;36.85;;;7.70;88.10;;;;;;5092293;28;20034;-79
2022/03/18 02:36:55;;;;;;;59.47;37.55;;;7.70;88.00;;;;;;5092319;28;20050;-78
2022/03/18 02:39:21;;;;;;;58.05;37.40;;;7.70;88.10;;;;;;5092232;28;20032;-78
2022/03/18 02:41:47;;;;;;;55.42;37.42;;;7.70;88.10;;;;;;5092514;28;20034;-79
2022/03/18 02:44:12;;;;;;;53.95;35.55;;;7.80;87.90;;;;;;5092172;28;20035;-79
2022/03/18 02:46:38;;;;;;;57.55;37.05;;;7.80;88.00;;;;;;5092248;28;20024;-79
2022/03/18 02:49:05;;;;;;;52.08;34.25;;;7.90;87.80;;;;;;5092495;28;20047;-78
2022/03/18 02:51:31;;;;;;;54.97;34.55;;;7.90;87.60;;;;;;5092400;28;20020;-78
2022/03/18 02:53:57;;;;;;;51.97;35.22;;;8.00;87.20;;;;;;5092232;28;20027;-78
2022/03/18 02:56:24;;;;;;;51.95;34.65;;;8.00;87.10;;;;;;5092299;28;20053;-78
2022/03/18 02:58:50;;;;;;;56.22;39.05;;;8.00;86.90;;;;;;5092071;28;20384;-78
2022/03/18 03:01:17;;;;;;;54.40;35.60;;;8.00;86.50;;;;;;5092309;28;20110;-78
2022/03/18 03:03:42;;;;;;;59.92;39.72;;;7.90;86.70;;;;;;5092047;28;20035;-77
2022/03/18 03:08:53;;;;;;;54.05;36.17;;;7.90;87.30;;;;;;5097714;28;20035;-78
2022/03/18 03:11:21;;;;;;;52.10;35.08;;;7.80;87.30;;;;;;5095908;28;20024;-78
2022/03/18 03:13:47;;;;;;;53.05;36.25;;;7.80;87.60;;;;;;5097237;28;20415;-78
2022/03/18 03:16:13;;;;;;;52.70;35.17;;;7.70;87.90;;;;;;5096060;28;20028;-78
2022/03/18 03:18:39;;;;;;;51.33;34.35;;;7.60;88.40;;;;;;5096237;28;20097;-78
2022/03/18 03:21:04;;;;;;;51.33;34.10;;;7.50;88.80;;;;;;5095943;28;20075;-78
2022/03/18 03:23:30;;;;;;;57.03;37.33;;;7.40;89.00;;;;;;5095991;28;20176;-78
2022/03/18 03:25:56;;;;;;;54.90;36.92;;;7.40;89.30;;;;;;5095747;28;20031;-78
2022/03/18 03:28:22;;;;;;;49.65;33.40;;;7.40;89.40;;;;;;5097423;28;20536;-78
2022/03/18 03:30:49;;;;;;;54.03;35.47;;;7.40;89.50;;;;;;5098000;28;20036;-79
2022/03/18 03:33:15;;;;;;;54.17;34.63;;;7.30;89.90;;;;;;5097087;28;20044;-79
2022/03/18 03:35:41;;;;;;;51.50;34.00;;;7.30;90.20;;;;;;5095720;28;20526;-77
2022/03/18 03:38:09;;;;;;;52.83;34.40;;;7.30;90.30;;;;;;5095471;28;20044;-80
2022/03/18 03:40:36;;;;;;;52.05;33.08;;;7.20;90.20;;;;;;5095815;28;20487;-78
2022/03/18 03:43:01;;;;;;;54.10;34.50;;;7.20;90.50;;;;;;5096034;28;20069;-79
2022/03/18 03:45:27;;;;;;;52.53;34.95;;;7.20;90.70;;;;;;5095574;28;20410;-78
2022/03/18 03:47:52;;;;;;;51.28;33.28;;;7.30;90.50;;;;;;5096724;28;20027;-78
2022/03/18 03:50:18;;;;;;;56.05;34.50;;;7.30;90.40;;;;;;5095100;28;20024;-78
2022/03/18 03:52:44;;;;;;;56.53;35.30;;;7.30;90.30;;;;;;5095493;28;20472;-78
2022/03/18 03:55:12;;;;;;;54.50;34.35;;;7.30;90.20;;;;;;5095461;28;20150;-78
2022/03/18 03:57:39;;;;;;;53.72;34.65;;;7.30;90.30;;;;;;5095390;28;20483;-79
2022/03/18 04:00:10;;;;;;;60.13;37.03;;;7.30;90.40;;;;;;5095151;28;20430;-78
2022/03/18 04:02:37;;;;;;;59.17;37.25;;;7.30;90.40;;;;;;5095215;28;20023;-79
2022/03/18 04:05:07;;;;;;;55.60;36.33;;;7.30;90.60;;;;;;5095084;28;20044;-79
2022/03/18 04:07:35;;;;;;;61.47;39.28;;;7.30;90.50;;;;;;5095069;28;20515;-78
2022/03/18 04:10:01;;;;;;;56.65;36.25;;;7.30;90.50;;;;;;5094986;28;20153;-79
2022/03/18 04:12:27;;;;;;;59.67;37.75;;;7.30;90.30;;;;;;5094751;28;20031;-79
2022/03/18 04:14:53;;;;;;;61.90;37.58;;;7.30;90.30;;;;;;5094683;28;20028;-78
2022/03/18 04:17:18;;;;;;;58.72;36.58;;;7.20;90.30;;;;;;5094425;28;20047;-79
2022/03/18 04:19:44;;;;;;;60.95;38.17;;;7.30;90.60;;;;;;5094919;28;20024;-79
2022/03/18 04:22:10;;;;;;;56.97;37.15;;;7.30;90.50;;;;;;5094991;28;20483;-78
2022/03/18 04:24:36;;;;;;;57.88;37.03;;;7.30;90.50;;;;;;5094993;28;20039;-79
2022/03/18 04:27:01;;;;;;;55.33;35.88;;;7.30;90.50;;;;;;5094969;28;20031;-79
2022/03/18 04:29:27;;;;;;;57.17;35.35;;;7.30;90.60;;;;;;5094643;28;20089;-79
2022/03/18 04:31:52;;;;;;;60.97;38.75;;;7.30;90.20;;;;;;5094933;28;20027;-78
2022/03/18 04:34:19;;;;;;;59.28;36.53;;;7.40;89.90;;;;;;5094159;28;20498;-79
2022/03/18 04:36:45;;;;;;;57.28;36.75;;;7.40;89.80;;;;;;5094371;28;20531;-78
2022/03/18 04:39:11;;;;;;;59.65;36.33;;;7.40;90.00;;;;;;5094367;28;20047;-78
2022/03/18 04:41:37;;;;;;;58.58;35.88;;;7.30;90.90;;;;;;5094424;28;20441;-79
2022/03/18 04:44:03;;;;;;;52.75;34.17;;;7.40;89.90;;;;;;5094655;28;20032;-78
2022/03/18 04:46:31;;;;;;;53.28;32.90;;;7.40;89.50;;;;;;5094099;28;20487;-79
2022/03/18 04:48:58;;;;;;;57.60;34.38;;;7.40;89.60;;;;;;5093857;28;20467;-79
2022/03/18 04:51:24;;;;;;;54.15;34.20;;;7.40;89.60;;;;;;5094086;28;20016;-78
2022/03/18 04:53:50;;;;;;;58.10;36.20;;;7.40;89.60;;;;;;5094173;28;20020;-78
2022/03/18 04:58:59;;;;;;;57.28;35.70;;;7.30;89.70;;;;;;5095433;28;20027;-78
2022/03/18 05:01:26;;;;;;;56.22;35.03;;;7.40;89.90;;;;;;5093826;28;20031;-78
2022/03/18 05:03:52;;;;;;;54.17;34.03;;;7.30;89.80;;;;;;5093753;28;20027;-77
2022/03/18 05:06:18;;;;;;;56.38;36.42;;;7.40;89.70;;;;;;5094116;28;20047;-75
2022/03/18 05:08:44;;;;;;;57.03;35.35;;;7.40;89.60;;;;;;5093938;28;20058;-75
2022/03/18 05:11:09;;;;;;;55.10;35.47;;;7.40;89.30;;;;;;5093611;28;20464;-78
2022/03/18 05:13:35;;;;;;;63.20;37.13;;;7.30;89.40;;;;;;5094235;28;20028;-75
2022/03/18 05:16:01;;;;;;;51.75;32.70;;;7.30;89.60;;;;;;5076904;28;20464;-75
2022/03/18 05:18:26;;;;;;;56.70;35.28;;;7.40;89.60;;;;;;5093262;28;20032;-76
2022/03/18 05:20:52;;;;;;;56.38;35.33;;;7.30;89.50;;;;;;5093414;28;20052;-75
2022/03/18 05:23:18;;;;;;;63.83;38.97;;;7.30;89.30;;;;;;5093657;28;20031;-76
2022/03/18 05:25:44;;;;;;;62.45;37.08;;;7.40;89.40;;;;;;5093419;28;20036;-75
2022/03/18 05:28:09;;;;;;;59.00;36.47;;;7.30;89.40;;;;;;5092473;28;20023;-75
2022/03/18 05:30:38;;;;;;;55.72;35.50;;;7.30;89.50;;;;;;5093691;28;20028;-78
2022/03/18 05:33:03;;;;;;;59.60;35.70;;;7.40;89.60;;;;;;5093259;28;20153;-79
2022/03/18 05:35:29;;;;;;;64.13;36.92;;;7.30;90.20;;;;;;5093266;28;20054;-76
2022/03/18 05:37:54;;;;;;;59.13;37.58;;;7.30;89.50;;;;;;5093089;28;20400;-78
2022/03/18 05:40:21;;;;;;;53.10;35.38;;;7.30;89.50;;;;;;5093040;28;20031;-76
2022/03/18 05:42:47;;;;;;;61.40;38.63;;;7.30;89.50;;;;;;5093343;28;20115;-76
2022/03/18 05:45:13;;;;;;;53.92;35.00;;;7.20;89.60;;;;;;5092878;28;20046;-77
2022/03/18 05:47:39;;;;;;;57.25;34.92;;;7.20;89.70;;;;;;5093354;28;20028;-75
2022/03/18 05:50:06;;;;;;;58.42;36.33;;;7.20;89.70;;;;;;5094017;28;20103;-76
2022/03/18 05:52:33;;;;;;;62.03;37.45;;;7.20;89.40;;;;;;5093226;28;20463;-77
2022/03/18 05:54:59;;;;;;;59.08;37.92;;;7.10;89.60;;;;;;5092914;28;20028;-76
2022/03/18 05:57:26;;;;;;;59.03;36.92;;;7.10;89.90;;;;;;5092370;28;20582;-77
2022/03/18 05:59:53;;;;;;;61.38;35.92;;;7.00;90.10;;;;;;5092788;28;20171;-78
2022/03/18 06:02:18;;;;;;;58.40;35.25;;;7.10;90.30;;;;;;5092550;28;20419;-76
2022/03/18 06:04:45;;;;;;;57.65;35.80;;;7.10;90.40;;;;;;5092811;28;20135;-77
2022/03/18 06:07:13;;;;;;;57.03;34.72;;;7.00;90.30;;;;;;5092554;28;20048;-76
2022/03/18 06:12:24;;;;;;;63.72;35.83;;;7.10;90.40;;;;;;5093778;28;20035;-79
2022/03/18 06:14:50;;;;;;;59.90;37.25;;;7.10;90.20;;;;;;5092376;28;20032;-79
2022/03/18 06:17:16;;;;;;;65.15;38.42;;;7.10;89.90;;;;;;5092368;28;20096;-80
2022/03/18 06:19:41;;;;;;;55.20;33.55;;;7.00;90.10;;;;;;5092290;28;20024;-78
2022/03/18 06:22:10;;;;;;;62.50;38.10;;;7.00;90.20;;;;;;5091993;28;20020;-79
2022/03/18 06:24:36;;;;;;;72.88;39.47;;;6.90;90.30;;;;;;5092437;28;20032;-79
2022/03/18 06:27:01;;;;;;;59.53;35.90;;;6.80;90.90;;;;;;5092453;28;20074;-79
2022/03/18 06:29:28;;;;;;;69.35;40.67;;;6.80;91.20;;;;;;5092607;28;20024;-78
2022/03/18 06:31:59;;;;;;;72.07;42.22;;;6.70;91.40;;;;;;5093235;28;20444;-79
2022/03/18 06:34:25;;;;;;;66.05;39.50;;;6.80;91.40;;;;;;5091494;28;20077;-79
2022/03/18 06:36:53;;;;;;;70.97;41.25;;;6.80;91.60;;;;;;5091732;28;20058;-77
2022/03/18 06:39:20;;;;;;;68.57;41.20;;;6.80;91.50;;;;;;5092245;28;20020;-76
2022/03/18 06:41:47;;;;;;;66.22;40.83;;;6.90;91.30;;;;;;5092140;28;20111;-80
2022/03/18 06:44:13;;;;;;;67.88;40.75;;;6.80;91.00;;;;;;5091852;28;20040;-79
2022/03/18 06:46:39;;;;;;;65.25;39.30;;;6.80;91.00;;;;;;5092586;28;20028;-78
2022/03/18 06:49:07;;;;;;;65.20;38.88;;;6.90;91.10;;;;;;5092752;28;20465;-81
2022/03/18 06:51:33;;;;;;;70.72;39.20;;;6.90;91.00;;;;;;5076084;28;20516;-79
2022/03/18 06:53:59;;;;;;;66.35;38.28;;;7.00;90.70;;;;;;5091792;28;20020;-74
2022/03/18 06:56:27;;;;;;;58.92;34.95;;;7.00;90.90;;;;;;5091786;28;20031;-74
2022/03/18 06:58:53;;;;;;;50.10;27.80;;;7.10;91.00;;;;;;5092446;28;20028;-74
2022/03/18 07:01:20;;;;;;;55.65;33.13;;;7.60;94.80;;;;;;5091780;28;20131;-75
2022/03/18 07:03:47;;;;;;;54.60;31.65;;;8.00;92.30;;;;;;5075528;28;20032;-74
2022/03/18 07:06:12;;;;;;;44.70;29.05;;;8.30;88.80;;;;;;5091648;28;20036;-73
2022/03/18 07:08:38;;;;;;;45.40;29.23;;;8.60;86.10;;;;;;5094914;28;20028;-74
2022/03/18 07:11:04;;;;;;;41.45;26.90;;;9.10;82.70;;;;;;5094578;28;20059;-73
2022/03/18 07:13:31;;;;;;;41.28;28.15;;;9.50;80.10;;;;;;5074858;28;20024;-75
2022/03/18 07:17:54;;;;;;;47.85;29.65;;;9.80;78.10;;;;;;5091771;28;20550;-76
2022/03/18 07:18:43;;;;;;;46.17;30.65;;;9.60;77.10;;;;;;5093052;28;20051;-75
2022/03/18 07:21:09;;;;;;;46.28;31.65;;;9.30;78.10;;;;;;5091455;28;20024;-75
2022/03/18 07:23:35;;;;;;;54.45;32.70;;;9.00;79.20;;;;;;5092341;28;20330;-76
2022/03/18 07:26:01;;;;;;;51.35;33.60;;;8.60;80.60;;;;;;5091505;28;20032;-75
2022/03/18 07:28:27;;;;;;;51.92;32.13;;;8.30;82.30;;;;;;5075531;28;20039;-77
2022/03/18 07:30:52;;;;;;;57.22;36.10;;;8.20;83.30;;;;;;5074673;28;20609;-77
2022/03/18 07:33:18;;;;;;;60.38;36.20;;;7.80;84.70;;;;;;5091321;28;20476;-77
2022/03/18 07:35:44;;;;;;;57.38;35.85;;;7.70;85.60;;;;;;5091585;28;20073;-77
2022/03/18 07:38:09;;;;;;;66.28;37.80;;;7.60;86.20;;;;;;5091230;28;20431;-77
2022/03/18 07:40:38;;;;;;;65.78;38.22;;;7.50;86.70;;;;;;5091549;28;20049;-77
2022/03/18 07:43:05;;;;;;;67.22;38.85;;;7.50;87.00;;;;;;5091376;28;20065;-77
2022/03/18 07:45:33;;;;;;;67.63;39.53;;;7.40;87.00;;;;;;5091389;28;20447;-77
2022/03/18 07:48:00;;;;;;;63.97;38.05;;;7.30;87.20;;;;;;5091193;28;20024;-77
2022/03/18 07:50:28;;;;;;;72.45;41.08;;;7.20;87.80;;;;;;5090986;28;20474;-77
2022/03/18 07:52:56;;;;;;;74.63;42.08;;;7.20;88.20;;;;;;5094007;28;20020;-77
2022/03/18 07:55:27;;;;;;;73.05;42.92;;;7.10;88.60;;;;;;5094725;28;20123;-76
2022/03/18 07:57:54;;;;;;;71.43;41.65;;;7.10;89.30;;;;;;5078583;28;20541;-77
2022/03/18 08:00:20;;;;;;;69.03;39.88;;;7.00;89.40;;;;;;5094807;28;20153;-77
2022/03/18 08:02:47;;;;;;;66.95;40.08;;;7.00;89.40;;;;;;5094707;28;20123;-77
2022/03/18 08:05:14;;;;;;;74.10;43.25;;;7.10;89.30;;;;;;5094410;28;20032;-77
2022/03/18 08:07:41;;;;;;;76.10;44.60;;;7.10;89.40;;;;;;5095869;28;20065;-77
2022/03/18 08:10:09;;;;;;;74.20;43.92;;;7.10;89.40;;;;;;5095572;28;20016;-77
2022/03/18 08:12:35;;;;;;;75.22;44.55;;;7.10;89.50;;;;;;5094780;28;20058;-77
2022/03/18 08:15:05;;;;;;;79.35;43.15;;;7.10;89.20;;;;;;5094917;28;20020;-79
2022/03/18 08:17:31;;;;;;;79.07;45.08;;;7.20;89.10;;;;;;5094102;28;20083;-79
2022/03/18 08:19:57;;;;;;;73.55;42.95;;;7.20;88.70;;;;;;5094780;28;20035;-78
2022/03/18 08:22:23;;;;;;;77.75;44.47;;;7.20;88.70;;;;;;5094603;28;20024;-77
2022/03/18 08:24:49;;;;;;;66.28;40.13;;;7.20;88.80;;;;;;5094159;28;20532;-77
2022/03/18 08:27:19;;;;;;;64.35;38.97;;;7.30;88.70;;;;;;5094420;28;20024;-78
2022/03/18 08:29:45;;;;;;;78.15;44.58;;;7.30;88.50;;;;;;5094275;28;20179;-78
2022/03/18 08:32:14;;;;;;;76.80;44.92;;;7.30;88.20;;;;;;5094549;28;20021;-77
2022/03/18 08:34:40;;;;;;;77.28;46.85;;;7.30;89.10;;;;;;5094266;28;20062;-79
2022/03/18 08:37:06;;;;;;;81.72;46.53;;;7.30;88.30;;;;;;5094123;28;20069;-77
2022/03/18 08:39:41;;;;;;;78.65;45.33;;;7.30;88.30;;;;;;5093821;28;20028;-77
2022/03/18 08:42:07;;;;;;;77.00;45.47;;;7.30;88.10;;;;;;5093972;28;20027;-77
2022/03/18 08:44:34;;;;;;;82.88;47.00;;;7.30;88.20;;;;;;5093429;28;20028;-77
2022/03/18 08:47:00;;;;;;;76.65;44.50;;;7.40;88.10;;;;;;5093861;28;20051;-77
2022/03/18 08:49:25;;;;;;;81.18;46.40;;;7.30;88.10;;;;;;5093862;28;20471;-77
2022/03/18 08:51:51;;;;;;;79.35;47.03;;;7.20;88.20;;;;;;5093724;28;20020;-76
2022/03/18 08:54:21;;;;;;;82.97;47.10;;;7.20;88.30;;;;;;5093889;28;20047;-76
2022/03/18 08:56:47;;;;;;;84.25;49.42;;;7.20;88.60;;;;;;5093152;28;20031;-79
2022/03/18 08:59:13;;;;;;;79.15;46.40;;;7.20;88.80;;;;;;5093859;28;20058;-78
2022/03/18 09:01:38;;;;;;;86.03;49.35;;;7.20;88.60;;;;;;5076862;28;20037;-78
2022/03/18 09:04:04;;;;;;;85.95;48.75;;;7.20;88.30;;;;;;5092398;28;20115;-77
2022/03/18 09:06:30;;;;;;;81.18;47.47;;;7.10;88.50;;;;;;5095200;28;20472;-76
2022/03/18 09:09:02;;;;;;;88.47;49.47;;;7.10;88.90;;;;;;5096973;28;20019;-76
2022/03/18 09:11:28;;;;;;;81.00;46.47;;;7.10;89.10;;;;;;5094363;28;20020;-78
2022/03/18 09:13:53;;;;;;;87.63;49.88;;;7.10;89.50;;;;;;5106038;28;20081;-76
2022/03/18 09:16:19;;;;;;;87.15;49.75;;;7.20;88.80;;;;;;5117708;28;20052;-76
2022/03/18 09:18:45;;;;;;;82.93;48.83;;;7.20;88.80;;;;;;5118523;28;20030;-75
2022/03/18 09:21:10;;;;;;;87.10;49.72;;;7.30;89.30;;;;;;5117926;28;20110;-76
2022/03/18 09:23:36;;;;;;;86.93;48.63;;;7.40;88.40;;;;;;5118074;28;20066;-76
2022/03/18 09:26:02;;;;;;;88.50;49.15;;;7.40;88.30;;;;;;5117789;28;20054;-75
2022/03/18 09:28:28;;;;;;;84.68;48.70;;;7.40;87.80;;;;;;5116661;28;20024;-75
2022/03/18 09:30:55;;;;;;;85.75;49.50;;;7.50;87.60;;;;;;5103796;28;20055;-76
2022/03/18 09:33:20;;;;;;;81.45;48.63;;;7.50;87.30;;;;;;5094141;28;20028;-75
2022/03/18 09:35:46;;;;;;;89.03;49.45;;;7.40;87.40;;;;;;5094147;28;20020;-76
2022/03/18 09:38:12;;;;;;;86.43;49.35;;;7.50;87.40;;;;;;5094638;28;20444;-76
2022/03/18 09:40:40;;;;;;;81.57;47.88;;;7.50;87.20;;;;;;5094173;28;20050;-76
2022/03/18 09:43:09;;;;;;;87.95;49.03;;;7.60;87.20;;;;;;5093809;28;20077;-76
2022/03/18 09:45:38;;;;;;;87.60;50.78;;;7.70;87.00;;;;;;5093254;28;20081;-76
2022/03/18 09:48:10;;;;;;;84.53;49.20;;;7.70;86.40;;;;;;5093217;28;20078;-75
2022/03/18 09:50:40;;;;;;;86.28;48.38;;;7.80;86.60;;;;;;5093014;28;20024;-76
2022/03/18 09:53:06;;;;;;;86.38;51.08;;;7.80;86.30;;;;;;5092764;28;20024;-76
2022/03/18 09:55:35;;;;;;;84.05;49.97;;;7.80;85.60;;;;;;5093028;28;20161;-74
2022/03/18 09:58:00;;;;;;;87.25;51.28;;;7.70;85.90;;;;;;5092894;28;20024;-76
2022/03/18 10:00:26;;;;;;;80.85;49.72;;;7.70;86.00;;;;;;5093509;28;20028;-76
2022/03/18 10:03:13;;;;;;;90.05;50.65;;;7.70;86.40;;;;;;5092890;28;20085;-76
2022/03/18 10:05:49;;;;;;;81.30;48.05;;;7.80;86.40;;;;;;5092707;28;20356;-75
2022/03/18 10:08:17;;;;;;;90.70;51.28;;;7.90;85.90;;;;;;5093274;28;20039;-75
2022/03/18 10:10:45;;;;;;;88.93;52.17;;;7.90;85.30;;;;;;5092576;28;20105;-75
2022/03/18 10:13:15;;;;;;;81.60;49.35;;;7.90;85.60;;;;;;5093788;28;20048;-76
2022/03/18 10:15:42;;;;;;;80.68;47.20;;;7.90;85.30;;;;;;5076136;28;20024;-76
2022/03/18 10:18:11;;;;;;;81.55;49.30;;;7.90;85.10;;;;;;5097609;28;20496;-76
2022/03/18 10:20:39;;;;;;;83.15;49.80;;;7.90;84.80;;;;;;5092865;28;20172;-76
2022/03/18 10:23:19;;;;;;;79.35;48.10;;;7.90;84.80;;;;;;5092257;28;20429;-77
2022/03/18 10:25:52;;;;;;;78.82;47.20;;;8.00;84.10;;;;;;5092225;28;20036;-76
2022/03/18 10:28:40;;;;;;;84.43;47.83;;;8.00;83.70;;;;;;5092476;28;20026;-76
2022/03/18 10:31:22;;;;;;;83.50;48.05;;;8.10;84.00;;;;;;5092228;28;20047;-77
2022/03/18 10:37:07;;;;;;;78.57;48.10;;;8.30;83.00;;;;;;5093464;28;20076;-76
2022/03/18 10:39:39;;;;;;;79.07;46.70;;;8.40;82.40;;;;;;5092076;28;20461;-75
2022/03/18 10:42:09;;;;;;;78.35;46.25;;;8.50;81.30;;;;;;5092184;28;20028;-76
2022/03/18 10:44:59;;;;;;;72.55;46.25;;;8.60;81.60;;;;;;5091763;28;20024;-76
2022/03/18 10:47:34;;;;;;;76.93;46.13;;;8.70;80.80;;;;;;5088897;28;20028;-75
2022/03/18 10:50:24;;;;;;;78.47;47.65;;;8.80;80.00;;;;;;5091643;28;20120;-76
2022/03/18 10:52:50;;;;;;;77.30;45.05;;;9.00;79.60;;;;;;5091732;28;20032;-76
2022/03/18 10:55:21;;;;;;;73.47;46.22;;;9.10;78.80;;;;;;5091642;28;20106;-76
2022/03/18 10:57:51;;;;;;;70.10;42.60;;;9.20;78.60;;;;;;5091858;28;20020;-77
2022/03/18 11:00:20;;;;;;;70.53;42.70;;;9.40;78.50;;;;;;5091014;28;20435;-75
2022/03/18 11:02:58;;;;;;;68.78;42.47;;;9.40;77.50;;;;;;5091323;28;20464;-75
2022/03/18 11:05:34;;;;;;;67.15;40.63;;;9.50;77.10;;;;;;5091304;28;20044;-77
2022/03/18 11:08:07;;;;;;;66.68;41.53;;;9.70;75.80;;;;;;5091431;28;20063;-75
2022/03/18 11:13:23;;;;;;;57.30;38.25;;;10.40;76.10;;;;;;5092798;28;20061;-76
2022/03/18 11:15:52;;;;;;;63.22;39.28;;;10.80;73.10;;;;;;5091188;28;20093;-77
2022/03/18 11:18:19;;;;;;;66.05;41.78;;;11.10;72.30;;;;;;5091307;28;20048;-76
2022/03/18 11:20:45;;;;;;;61.72;38.95;;;10.90;70.40;;;;;;5091234;28;20077;-76
2022/03/18 11:23:16;;;;;;;60.10;39.20;;;10.70;70.40;;;;;;5091054;28;20103;-74
2022/03/18 11:25:50;;;;;;;62.58;39.28;;;10.70;70.70;;;;;;5091490;28;20059;-75
2022/03/18 11:28:18;;;;;;;44.92;30.33;;;10.80;70.30;;;;;;5095173;28;20020;-73
2022/03/18 11:30:45;;;;;;;59.13;36.67;;;10.90;70.00;;;;;;5096555;28;20034;-73
2022/03/18 11:33:11;;;;;;;58.33;36.45;;;11.10;68.90;;;;;;5094784;28;20094;-75
2022/03/18 11:35:49;;;;;;;56.47;36.83;;;11.00;67.80;;;;;;5094573;28;20099;-74
2022/03/18 11:38:15;;;;;;;57.67;36.75;;;11.00;68.30;;;;;;5093922;28;20046;-73
2022/03/18 11:40:58;;;;;;;59.17;37.58;;;11.00;68.40;;;;;;5094932;28;20016;-75
2022/03/18 11:43:33;;;;;;;62.42;36.85;;;11.10;68.10;;;;;;5094687;28;20035;-75
2022/03/18 11:46:16;;;;;;;55.20;36.93;;;11.20;66.90;;;;;;5095016;28;20109;-75
2022/03/18 11:48:49;;;;;;;57.50;35.95;;;11.20;66.80;;;;;;5094651;28;20055;-75
2022/03/18 11:51:34;;;;;;;58.53;35.20;;;11.30;66.80;;;;;;5093953;28;20447;-75
2022/03/18 11:54:24;;;;;;;39.85;26.60;;;11.40;67.10;;;;;;5094293;28;20046;-76
2022/03/18 11:56:55;;;;;;;53.67;33.67;;;11.60;66.60;;;;;;5094340;28;20024;-76
2022/03/18 11:59:29;;;;;;;52.78;33.65;;;11.60;64.90;;;;;;5094673;28;20039;-76
2022/03/18 12:01:56;;;;;;;53.20;34.92;;;11.50;64.10;;;;;;5094489;28;20066;-75
2022/03/18 12:04:38;;;;;;;54.20;35.60;;;11.50;64.60;;;;;;5094488;28;20501;-75
2022/03/18 12:07:14;;;;;;;55.20;35.30;;;11.50;64.20;;;;;;5094462;28;20024;-75
2022/03/18 12:10:00;;;;;;;52.15;32.70;;;11.60;64.20;;;;;;5094847;28;20024;-73
2022/03/18 12:12:27;;;;;;;55.80;33.70;;;11.70;65.50;;;;;;5094686;28;20036;-73
2022/03/18 12:14:55;;;;;;;54.75;33.88;;;11.90;64.30;;;;;;5094035;28;20491;-72
2022/03/18 12:17:22;;;;;;;48.67;33.10;;;12.10;63.60;;;;;;5095165;28;20135;-75
2022/03/18 12:19:57;;;;;;;48.90;33.63;;;12.30;61.90;;;;;;5094488;28;20021;-74
2022/03/18 12:22:24;;;;;;;51.03;33.88;;;12.20;61.80;;;;;;5094522;28;20433;-76
2022/03/18 12:24:52;;;;;;;50.85;33.03;;;12.30;61.90;;;;;;5094185;28;20392;-74
2022/03/18 12:27:26;;;;;;;47.63;31.15;;;12.40;61.40;;;;;;5095510;28;20027;-73
2022/03/18 12:30:09;;;;;;;49.33;33.25;;;12.30;61.70;;;;;;5095435;28;20035;-77
2022/03/18 12:32:39;;;;;;;46.60;31.98;;;12.60;60.70;;;;;;5095635;28;20087;-74
2022/03/18 12:35:05;;;;;;;48.28;31.42;;;12.60;59.40;;;;;;5095275;28;20032;-73
2022/03/18 12:37:34;;;;;;;51.35;32.95;;;12.60;58.60;;;;;;5095100;28;20020;-74
2022/03/18 12:40:13;;;;;;;53.53;34.08;;;12.60;59.00;;;;;;5094768;28;20020;-74
2022/03/18 12:42:49;;;;;;;48.83;32.75;;;12.50;59.00;;;;;;5095106;28;20115;-72
2022/03/18 12:45:37;;;;;;;44.17;30.88;;;12.50;59.40;;;;;;5094998;28;20063;-73
2022/03/18 12:48:13;;;;;;;49.28;31.88;;;12.40;58.40;;;;;;5092791;28;20020;-71
2022/03/18 12:50:47;;;;;;;44.95;30.75;;;12.20;60.10;;;;;;5093913;28;20027;-72
2022/03/18 12:53:22;;;;;;;45.42;29.40;;;12.20;60.20;;;;;;5094929;28;20028;-72
2022/03/18 12:55:50;;;;;;;45.70;30.38;;;12.40;60.40;;;;;;5094770;28;20024;-73
2022/03/18 12:58:17;;;;;;;43.35;30.63;;;12.60;59.10;;;;;;5094702;28;20131;-72
2022/03/18 13:00:45;;;;;;;45.38;30.40;;;12.70;58.30;;;;;;5093267;28;20049;-72